Time;durP1;ratioP1;P1;durP2;ratioP2;P2;SDS_P1;SDS_P2;PMS_P1;PMS_P2;Temp;Humidity;BMP_temperature;BMP_pressure;BME280_temperature;BME280_humidity;BME280_pressure;Samples;Min_cycle;Max_cycle;Signal;HPM_P1;HPM_P2
2023/08/26 00:00:30;;;;;;;5.50;4.10;;;20.90;99.90;;;;;;5047791;28;20197;-69
2023/08/26 00:02:58;;;;;;;5.15;4.40;;;20.90;99.90;;;;;;5069171;28;20180;-69
2023/08/26 00:05:25;;;;;;;4.88;4.25;;;20.80;99.90;;;;;;5058136;28;20263;-69
2023/08/26 00:07:53;;;;;;;6.13;4.32;;;20.80;99.90;;;;;;5050404;28;20189;-69
2023/08/26 00:10:21;;;;;;;4.90;3.90;;;20.80;99.90;;;;;;5054975;28;20203;-69
2023/08/26 00:12:49;;;;;;;6.72;4.25;;;20.80;99.90;;;;;;5070753;28;20221;-72
2023/08/26 00:15:15;;;;;;;6.60;5.00;;;20.80;99.90;;;;;;5073247;28;20173;-70
2023/08/26 00:17:43;;;;;;;5.28;4.72;;;20.80;99.90;;;;;;5072289;28;20228;-69
2023/08/26 00:20:11;;;;;;;6.00;4.70;;;20.70;99.90;;;;;;5040760;28;20201;-67
2023/08/26 00:22:40;;;;;;;6.75;4.95;;;20.70;99.90;;;;;;5039793;28;20256;-67
2023/08/26 00:25:06;;;;;;;7.53;5.07;;;20.70;99.90;;;;;;5056527;28;20173;-67
2023/08/26 00:27:33;;;;;;;6.63;4.60;;;20.70;99.90;;;;;;5051645;28;20212;-67
2023/08/26 00:29:59;;;;;;;5.60;4.35;;;20.70;99.90;;;;;;5080069;28;20180;-68
2023/08/26 00:32:29;;;;;;;7.68;5.97;;;20.70;99.90;;;;;;5062920;28;20236;-67
2023/08/26 00:34:54;;;;;;;7.32;5.13;;;20.70;99.90;;;;;;5044877;28;20177;-66
2023/08/26 00:37:22;;;;;;;7.70;5.25;;;20.70;99.90;;;;;;5058130;28;20523;-67
2023/08/26 00:39:48;;;;;;;6.03;4.68;;;20.70;99.90;;;;;;5059321;28;20199;-67
2023/08/26 00:42:16;;;;;;;5.85;3.95;;;20.70;99.90;;;;;;5057243;28;20224;-66
2023/08/26 00:44:41;;;;;;;6.35;4.10;;;20.70;99.90;;;;;;5061893;28;20168;-68
2023/08/26 00:47:07;;;;;;;4.88;3.28;;;20.60;99.90;;;;;;5043461;28;20192;-67
2023/08/26 00:49:34;;;;;;;4.00;3.10;;;20.60;99.90;;;;;;5056037;28;20245;-67
2023/08/26 00:52:00;;;;;;;5.20;3.10;;;20.60;99.90;;;;;;5038561;28;20169;-68
2023/08/26 00:54:27;;;;;;;4.07;3.20;;;20.60;99.90;;;;;;5053903;28;20378;-67
2023/08/26 00:56:54;;;;;;;4.57;3.00;;;20.50;99.90;;;;;;5057207;28;20198;-68
2023/08/26 00:59:20;;;;;;;3.63;2.92;;;20.50;99.90;;;;;;5064907;28;20165;-67
2023/08/26 01:01:49;;;;;;;4.13;2.78;;;20.50;99.90;;;;;;5045118;28;20193;-67
2023/08/26 01:04:16;;;;;;;4.00;2.90;;;20.50;99.90;;;;;;5054439;28;20184;-68
2023/08/26 01:06:44;;;;;;;3.08;2.78;;;20.50;99.90;;;;;;5058275;28;20226;-68
2023/08/26 01:09:09;;;;;;;3.92;2.85;;;20.50;99.90;;;;;;5061039;28;20180;-68
2023/08/26 01:11:38;;;;;;;3.65;3.03;;;20.50;99.90;;;;;;5075549;28;20188;-67
2023/08/26 01:14:31;;;;;;;3.83;2.70;;;20.50;99.90;;;;;;5057677;28;20239;-67
2023/08/26 01:16:58;;;;;;;3.45;2.83;;;20.50;99.90;;;;;;5038377;28;20181;-67
2023/08/26 01:19:37;;;;;;;3.28;2.90;;;20.50;99.90;;;;;;5054889;28;20175;-67
2023/08/26 01:22:06;;;;;;;3.53;2.50;;;20.50;99.90;;;;;;5058427;28;20177;-67
2023/08/26 01:24:31;;;;;;;4.03;2.45;;;20.50;99.90;;;;;;5057708;28;20173;-67
2023/08/26 01:26:58;;;;;;;2.75;2.40;;;20.40;99.90;;;;;;5066063;28;20177;-67
2023/08/26 01:29:26;;;;;;;2.90;2.20;;;20.50;99.90;;;;;;5057289;28;20168;-67
2023/08/26 01:32:25;;;;;;;3.60;2.10;;;20.50;99.90;;;;;;5058572;28;20184;-67
2023/08/26 01:34:57;;;;;;;3.60;1.95;;;20.40;99.90;;;;;;5050171;28;20195;-68
2023/08/26 01:37:31;;;;;;;2.05;1.83;;;20.50;99.90;;;;;;5058277;28;20214;-68
2023/08/26 01:39:59;;;;;;;2.40;2.03;;;20.40;99.90;;;;;;5090199;28;20268;-67
2023/08/26 01:42:26;;;;;;;2.30;1.92;;;20.40;99.90;;;;;;5049520;28;20243;-66
2023/08/26 01:44:52;;;;;;;2.05;1.85;;;20.40;99.90;;;;;;5041188;28;20202;-66
2023/08/26 01:47:20;;;;;;;2.58;1.88;;;20.40;99.90;;;;;;5054733;28;20185;-67
2023/08/26 01:49:46;;;;;;;2.38;1.90;;;20.40;99.90;;;;;;5038021;28;20197;-67
2023/08/26 01:52:11;;;;;;;3.08;2.05;;;20.40;99.90;;;;;;5067702;28;20190;-68
2023/08/26 01:54:37;;;;;;;2.65;1.90;;;20.40;99.90;;;;;;5077030;28;20188;-68
2023/08/26 01:57:03;;;;;;;2.10;1.77;;;20.40;99.90;;;;;;5061405;28;20176;-69
2023/08/26 01:59:28;;;;;;;2.15;1.60;;;20.40;99.90;;;;;;5060205;28;20177;-69
2023/08/26 02:01:54;;;;;;;3.05;1.67;;;20.40;99.90;;;;;;5077727;28;20222;-67
2023/08/26 02:04:21;;;;;;;1.90;1.63;;;20.40;99.90;;;;;;5058220;28;20204;-67
2023/08/26 02:06:48;;;;;;;1.92;1.55;;;20.30;99.90;;;;;;5053535;28;20190;-66
2023/08/26 02:09:14;;;;;;;2.08;1.52;;;20.30;99.90;;;;;;5042915;28;20292;-67
2023/08/26 02:11:40;;;;;;;1.50;1.27;;;20.30;99.90;;;;;;5057677;28;20231;-67
2023/08/26 02:14:06;;;;;;;2.22;1.70;;;20.20;99.90;;;;;;5057740;28;20427;-66
2023/08/26 02:16:31;;;;;;;1.77;1.42;;;20.10;99.90;;;;;;5061470;28;20212;-67
2023/08/26 02:18:57;;;;;;;2.30;1.50;;;20.10;99.90;;;;;;5063902;28;20173;-67
2023/08/26 02:21:24;;;;;;;1.70;1.38;;;20.00;99.90;;;;;;5057883;28;20177;-67
2023/08/26 02:23:50;;;;;;;3.38;1.70;;;19.90;99.90;;;;;;5057114;28;20176;-67
2023/08/26 02:26:18;;;;;;;3.63;1.60;;;19.90;99.90;;;;;;5060945;28;20192;-67
2023/08/26 02:28:43;;;;;;;1.80;1.35;;;19.80;99.90;;;;;;5061073;28;20173;-67
2023/08/26 02:31:09;;;;;;;1.58;1.42;;;19.70;99.90;;;;;;5070735;28;20264;-67
2023/08/26 02:33:34;;;;;;;1.67;1.40;;;19.60;99.90;;;;;;5060803;28;20197;-67
2023/08/26 02:36:00;;;;;;;2.45;1.50;;;19.60;99.90;;;;;;5060124;28;20483;-67
2023/08/26 02:38:26;;;;;;;2.63;1.63;;;19.50;99.90;;;;;;5060255;28;20267;-67
2023/08/26 02:40:55;;;;;;;3.13;2.08;;;19.40;99.90;;;;;;5062092;28;20370;-67
2023/08/26 02:43:23;;;;;;;2.20;1.70;;;19.30;99.90;;;;;;5062995;28;20215;-67
2023/08/26 02:45:56;;;;;;;2.28;1.80;;;19.30;99.90;;;;;;5042975;28;20185;-67
2023/08/26 02:48:25;;;;;;;2.92;1.73;;;19.20;99.90;;;;;;5054170;28;20206;-67
2023/08/26 02:50:57;;;;;;;1.88;1.70;;;19.10;99.90;;;;;;5060760;28;20176;-67
2023/08/26 02:53:24;;;;;;;2.75;1.55;;;19.10;99.90;;;;;;5057571;28;20197;-67
2023/08/26 02:55:51;;;;;;;2.53;1.70;;;19.00;99.90;;;;;;5061089;28;20216;-67
2023/08/26 02:58:20;;;;;;;2.45;1.95;;;18.90;99.90;;;;;;5060409;28;20215;-67
2023/08/26 03:00:48;;;;;;;3.50;2.13;;;18.90;99.90;;;;;;5057234;28;20197;-68
2023/08/26 03:03:17;;;;;;;1.88;1.77;;;18.80;99.90;;;;;;5065733;28;20196;-67
2023/08/26 03:05:43;;;;;;;2.38;1.75;;;18.70;99.90;;;;;;5059300;28;20176;-68
2023/08/26 03:08:11;;;;;;;2.85;1.60;;;18.70;99.90;;;;;;5058730;28;20202;-67
2023/08/26 03:10:40;;;;;;;2.53;1.90;;;18.60;99.90;;;;;;5052717;28;20296;-67
2023/08/26 03:13:07;;;;;;;2.20;1.77;;;18.60;99.90;;;;;;5069148;28;20216;-67
2023/08/26 03:15:33;;;;;;;2.22;1.80;;;18.50;99.90;;;;;;5054685;28;20173;-67
2023/08/26 03:17:59;;;;;;;3.30;2.03;;;18.40;99.90;;;;;;5066729;28;20245;-67
2023/08/26 03:20:27;;;;;;;5.72;1.98;;;18.40;99.90;;;;;;5059865;28;20192;-67
2023/08/26 03:22:55;;;;;;;2.33;1.73;;;18.30;99.90;;;;;;5051028;28;20268;-67
2023/08/26 03:25:21;;;;;;;1.95;1.75;;;18.20;99.90;;;;;;5050889;28;20283;-67
2023/08/26 03:27:46;;;;;;;4.20;1.73;;;18.10;99.90;;;;;;5076967;28;20196;-67
2023/08/26 03:30:12;;;;;;;1.50;1.27;;;18.10;99.90;;;;;;5062778;28;20204;-68
2023/08/26 03:32:37;;;;;;;1.58;1.48;;;18.00;99.90;;;;;;5070805;28;20243;-66
2023/08/26 03:35:03;;;;;;;3.38;1.63;;;18.00;99.90;;;;;;5045037;28;20172;-67
2023/08/26 03:37:29;;;;;;;1.90;1.60;;;17.90;99.90;;;;;;5059881;28;20238;-67
2023/08/26 03:39:59;;;;;;;2.53;1.60;;;17.90;99.90;;;;;;5058051;28;20177;-67
2023/08/26 03:42:25;;;;;;;3.35;1.60;;;17.80;99.90;;;;;;5059875;28;20404;-67
2023/08/26 03:44:51;;;;;;;1.88;1.40;;;17.70;99.90;;;;;;5074796;28;20255;-67
2023/08/26 03:47:16;;;;;;;2.00;1.60;;;17.70;99.90;;;;;;5067695;28;20184;-68
2023/08/26 03:49:42;;;;;;;2.42;1.50;;;17.70;99.90;;;;;;5058674;28;20214;-67
2023/08/26 03:52:08;;;;;;;2.22;1.63;;;17.60;99.90;;;;;;5051683;28;20281;-68
2023/08/26 03:54:34;;;;;;;2.15;1.50;;;17.60;99.90;;;;;;5055771;28;20231;-67
2023/08/26 03:57:02;;;;;;;1.55;1.30;;;17.50;99.90;;;;;;5040457;28;20180;-67
2023/08/26 03:59:27;;;;;;;1.60;1.42;;;17.50;99.90;;;;;;5074813;28;20259;-67
2023/08/26 04:01:55;;;;;;;1.48;1.20;;;17.40;99.90;;;;;;5056144;28;20208;-67
2023/08/26 04:04:26;;;;;;;3.38;1.30;;;17.40;99.90;;;;;;5050048;28;20209;-67
2023/08/26 04:06:52;;;;;;;1.88;1.48;;;17.40;99.90;;;;;;5068992;28;20189;-67
2023/08/26 04:09:18;;;;;;;2.28;1.40;;;17.30;99.90;;;;;;5052984;28;20181;-67
2023/08/26 04:11:43;;;;;;;2.00;1.20;;;17.30;99.90;;;;;;5055981;28;20254;-66
2023/08/26 04:14:09;;;;;;;2.35;1.30;;;17.30;99.90;;;;;;5059320;28;20283;-67
2023/08/26 04:16:35;;;;;;;1.42;1.27;;;17.20;99.90;;;;;;5055419;28;20279;-68
2023/08/26 04:19:03;;;;;;;1.30;1.10;;;17.20;99.90;;;;;;5044925;28;20185;-68
2023/08/26 04:21:29;;;;;;;2.30;1.23;;;17.20;99.90;;;;;;5075771;28;20244;-68
2023/08/26 04:23:57;;;;;;;3.58;1.17;;;17.10;99.90;;;;;;5056025;28;20277;-68
2023/08/26 04:26:23;;;;;;;2.33;1.10;;;17.10;99.90;;;;;;5054743;28;20188;-67
2023/08/26 04:28:51;;;;;;;1.98;1.10;;;17.10;99.90;;;;;;5058750;28;20173;-68
2023/08/26 04:31:16;;;;;;;1.52;1.00;;;17.00;99.90;;;;;;5058698;28;20200;-67
2023/08/26 04:33:44;;;;;;;1.95;1.20;;;17.00;99.90;;;;;;5058700;28;20265;-68
2023/08/26 04:36:09;;;;;;;1.63;1.10;;;16.90;99.90;;;;;;5059259;28;20199;-67
2023/08/26 04:38:37;;;;;;;2.22;1.25;;;16.90;99.90;;;;;;5058046;28;20192;-68
2023/08/26 04:41:09;;;;;;;1.88;1.00;;;16.80;99.90;;;;;;5061035;28;20177;-68
2023/08/26 04:43:35;;;;;;;1.80;1.27;;;16.80;99.90;;;;;;5053215;28;20193;-67
2023/08/26 04:46:01;;;;;;;2.13;1.00;;;16.80;99.90;;;;;;5059397;28;20196;-68
2023/08/26 04:48:28;;;;;;;2.10;1.20;;;16.80;99.90;;;;;;5062305;28;20249;-68
2023/08/26 04:50:54;;;;;;;1.38;1.00;;;16.80;99.90;;;;;;5042008;28;20275;-67
2023/08/26 04:53:20;;;;;;;2.55;1.20;;;16.80;99.90;;;;;;5058757;28;20288;-67
2023/08/26 04:55:49;;;;;;;2.05;1.10;;;16.70;99.90;;;;;;5057902;28;20216;-68
2023/08/26 04:58:15;;;;;;;1.45;1.10;;;16.80;99.90;;;;;;5042839;28;20223;-68
2023/08/26 05:00:43;;;;;;;1.20;1.08;;;16.70;99.90;;;;;;5061178;28;20258;-68
2023/08/26 05:03:09;;;;;;;1.38;1.17;;;16.70;99.90;;;;;;5054979;28;20186;-68
2023/08/26 05:05:39;;;;;;;2.55;1.30;;;16.70;99.90;;;;;;5065065;28;20271;-68
2023/08/26 05:08:10;;;;;;;1.58;0.95;;;16.70;99.90;;;;;;5073857;28;20198;-67
2023/08/26 05:10:38;;;;;;;1.40;1.20;;;16.70;99.90;;;;;;5058111;28;20180;-68
2023/08/26 05:13:06;;;;;;;3.22;1.20;;;16.60;99.90;;;;;;5057674;28;20206;-67
2023/08/26 05:15:35;;;;;;;2.70;1.40;;;16.60;99.90;;;;;;5075081;28;20180;-68
2023/08/26 05:18:03;;;;;;;3.65;1.40;;;16.60;99.90;;;;;;5057671;28;20226;-66
2023/08/26 05:20:29;;;;;;;1.38;0.90;;;16.60;99.90;;;;;;5058497;28;20212;-65
2023/08/26 05:22:56;;;;;;;2.80;1.20;;;16.60;99.90;;;;;;5053637;28;20292;-67
2023/08/26 05:25:22;;;;;;;1.65;1.15;;;16.60;99.90;;;;;;5055474;28;20287;-67
2023/08/26 05:27:47;;;;;;;3.95;1.23;;;16.60;99.90;;;;;;5057457;28;20211;-67
2023/08/26 05:30:13;;;;;;;1.67;1.05;;;16.60;99.90;;;;;;5056915;28;20190;-67
2023/08/26 05:32:39;;;;;;;2.13;1.00;;;16.60;99.90;;;;;;5058129;28;20274;-67
2023/08/26 05:35:05;;;;;;;1.77;0.93;;;16.60;99.90;;;;;;5057986;28;20173;-67
2023/08/26 05:37:30;;;;;;;1.17;1.08;;;16.60;99.90;;;;;;5058927;28;20172;-67
2023/08/26 05:39:56;;;;;;;2.45;0.93;;;16.70;99.90;;;;;;5061093;28;20193;-67
2023/08/26 05:42:21;;;;;;;2.25;0.90;;;16.70;99.90;;;;;;5043956;28;20185;-67
2023/08/26 05:44:47;;;;;;;1.35;0.95;;;16.70;99.90;;;;;;5063733;28;20306;-67
2023/08/26 05:47:13;;;;;;;1.92;0.98;;;16.70;99.90;;;;;;5056531;28;20172;-67
2023/08/26 05:49:40;;;;;;;2.80;1.50;;;16.70;99.90;;;;;;5062780;28;20188;-67
2023/08/26 05:52:08;;;;;;;1.52;1.20;;;16.80;99.90;;;;;;5057559;28;20180;-67
2023/08/26 05:54:34;;;;;;;1.60;1.13;;;16.80;99.90;;;;;;5057420;28;20184;-67
2023/08/26 05:57:02;;;;;;;2.05;1.15;;;16.80;99.90;;;;;;5054034;28;20177;-67
2023/08/26 05:59:30;;;;;;;3.08;1.40;;;16.80;99.90;;;;;;5054486;28;20174;-67
2023/08/26 06:01:56;;;;;;;3.60;1.40;;;16.90;99.90;;;;;;5060684;28;20181;-67
2023/08/26 06:04:24;;;;;;;1.63;1.10;;;16.90;99.90;;;;;;5064379;28;20177;-66
2023/08/26 06:06:52;;;;;;;2.97;1.00;;;16.90;99.90;;;;;;5057698;28;20203;-67
2023/08/26 06:09:19;;;;;;;1.52;1.00;;;17.00;99.90;;;;;;5070747;28;20431;-65
2023/08/26 06:11:47;;;;;;;2.45;1.00;;;17.00;99.90;;;;;;5058012;28;20173;-66
2023/08/26 06:14:13;;;;;;;2.50;1.10;;;17.00;99.90;;;;;;5057668;28;20232;-67
2023/08/26 06:16:39;;;;;;;5.35;1.00;;;17.00;99.90;;;;;;5060218;28;20187;-66
2023/08/26 06:19:06;;;;;;;1.05;0.88;;;17.10;99.90;;;;;;5059518;28;20220;-67
2023/08/26 06:21:34;;;;;;;3.45;1.08;;;17.10;99.90;;;;;;5057395;28;20176;-66
2023/08/26 06:24:00;;;;;;;5.13;1.00;;;17.20;99.90;;;;;;5057890;28;20225;-66
2023/08/26 06:26:26;;;;;;;1.45;1.00;;;17.20;99.90;;;;;;5056916;28;20280;-67
2023/08/26 06:28:54;;;;;;;3.70;1.55;;;17.30;99.90;;;;;;5064597;28;20235;-66
2023/08/26 06:31:22;;;;;;;1.95;1.15;;;17.30;99.90;;;;;;5074251;28;20221;-68
2023/08/26 06:33:48;;;;;;;2.38;1.20;;;17.30;99.90;;;;;;5042818;28;20217;-67
2023/08/26 06:36:16;;;;;;;2.90;0.90;;;17.30;99.90;;;;;;5066616;28;20181;-67
2023/08/26 06:38:42;;;;;;;1.67;0.95;;;17.40;99.90;;;;;;5041407;28;20227;-67
2023/08/26 06:41:07;;;;;;;1.52;1.00;;;17.40;99.90;;;;;;5071597;28;20201;-66
2023/08/26 06:43:35;;;;;;;3.65;1.13;;;17.40;99.90;;;;;;5061010;28;20290;-66
2023/08/26 06:46:01;;;;;;;1.23;1.00;;;17.50;99.90;;;;;;5059496;28;20195;-64
2023/08/26 06:48:26;;;;;;;6.05;1.00;;;17.50;99.90;;;;;;5056456;28;20205;-65
2023/08/26 06:50:52;;;;;;;2.35;1.05;;;17.60;99.90;;;;;;5060124;28;20181;-66
2023/08/26 06:53:23;;;;;;;1.40;1.05;;;17.60;99.90;;;;;;5060688;28;20232;-67
2023/08/26 06:55:51;;;;;;;1.80;1.30;;;17.70;99.90;;;;;;5060607;28;20203;-66
2023/08/26 06:58:17;;;;;;;2.03;1.30;;;17.70;99.90;;;;;;5060734;28;20172;-66
2023/08/26 07:00:48;;;;;;;3.15;1.23;;;17.80;99.90;;;;;;5059886;28;20258;-66
2023/08/26 07:03:13;;;;;;;2.10;0.90;;;17.90;99.90;;;;;;5060355;28;20208;-66
2023/08/26 07:05:43;;;;;;;1.52;1.10;;;17.90;99.90;;;;;;5060301;28;20211;-67
2023/08/26 07:08:09;;;;;;;1.70;1.10;;;18.00;99.90;;;;;;5077191;28;20205;-67
2023/08/26 07:10:34;;;;;;;1.38;1.10;;;18.00;99.90;;;;;;5059959;28;20184;-66
2023/08/26 07:13:00;;;;;;;2.22;1.20;;;18.10;99.90;;;;;;5059636;28;20295;-66
2023/08/26 07:15:26;;;;;;;1.65;0.98;;;18.20;99.90;;;;;;5060867;28;20206;-66
2023/08/26 07:17:53;;;;;;;3.38;1.33;;;18.30;99.90;;;;;;5060213;28;20180;-66
2023/08/26 07:20:20;;;;;;;1.38;0.98;;;18.30;99.90;;;;;;5060121;28;20197;-66
2023/08/26 07:22:46;;;;;;;1.80;1.00;;;18.40;99.90;;;;;;5060444;28;20176;-66
2023/08/26 07:25:15;;;;;;;2.97;1.35;;;18.50;99.90;;;;;;5068288;28;20172;-66
2023/08/26 07:27:44;;;;;;;2.42;1.20;;;18.50;99.90;;;;;;5064292;28;20193;-66
2023/08/26 07:30:13;;;;;;;3.28;1.33;;;18.60;99.90;;;;;;5059416;28;20176;-67
2023/08/26 07:32:41;;;;;;;1.63;1.00;;;18.60;99.90;;;;;;5059068;28;20442;-66
2023/08/26 07:35:08;;;;;;;3.83;1.00;;;18.70;99.90;;;;;;5059842;28;20173;-67
2023/08/26 07:37:36;;;;;;;2.63;0.80;;;18.80;99.90;;;;;;5059495;28;20204;-66
2023/08/26 07:40:07;;;;;;;2.45;1.00;;;18.80;99.90;;;;;;5058917;28;20204;-66
2023/08/26 07:42:35;;;;;;;2.25;1.08;;;18.80;99.90;;;;;;5039870;28;20205;-67
2023/08/26 07:45:01;;;;;;;1.52;0.90;;;18.90;99.90;;;;;;5056725;28;20169;-68
2023/08/26 07:47:29;;;;;;;1.75;0.90;;;18.90;99.90;;;;;;5071243;28;20254;-67
2023/08/26 07:49:57;;;;;;;2.80;1.25;;;19.00;99.90;;;;;;5059407;28;20189;-67
2023/08/26 07:52:25;;;;;;;1.88;1.20;;;19.10;99.90;;;;;;5058635;28;20223;-66
2023/08/26 07:54:53;;;;;;;1.15;0.80;;;19.10;99.90;;;;;;5059411;28;20223;-67
2023/08/26 07:57:18;;;;;;;2.22;0.80;;;19.10;99.90;;;;;;5058781;28;20200;-67
2023/08/26 07:59:46;;;;;;;2.50;1.23;;;19.20;99.90;;;;;;5044343;28;20208;-67
2023/08/26 08:02:17;;;;;;;2.03;0.85;;;19.30;99.90;;;;;;5039522;28;20181;-67
2023/08/26 08:04:42;;;;;;;3.60;0.98;;;19.30;99.90;;;;;;5039097;28;20154;-67
2023/08/26 08:07:08;;;;;;;2.00;0.80;;;19.40;99.90;;;;;;5042595;28;20177;-67
2023/08/26 08:09:34;;;;;;;2.22;1.10;;;19.40;99.90;;;;;;5058468;28;20349;-67
2023/08/26 08:12:02;;;;;;;4.80;1.20;;;19.40;99.90;;;;;;5058916;28;20263;-67
2023/08/26 08:14:28;;;;;;;2.50;1.10;;;19.50;99.90;;;;;;5058147;28;20246;-68
2023/08/26 08:16:56;;;;;;;1.40;0.93;;;19.50;99.90;;;;;;5058858;28;20196;-67
2023/08/26 08:19:23;;;;;;;1.27;0.80;;;19.60;99.90;;;;;;5058670;28;20165;-69
2023/08/26 08:21:48;;;;;;;1.58;0.90;;;19.70;99.90;;;;;;5058478;28;20288;-69
2023/08/26 08:24:14;;;;;;;1.67;0.90;;;19.70;99.90;;;;;;5057761;28;20260;-70
2023/08/26 08:26:44;;;;;;;2.60;0.88;;;19.80;99.90;;;;;;5069112;28;20176;-68
2023/08/26 08:29:10;;;;;;;1.77;0.95;;;19.80;99.90;;;;;;5060823;28;20198;-67
2023/08/26 08:31:36;;;;;;;1.42;0.88;;;19.80;99.90;;;;;;5065329;28;20471;-66
2023/08/26 08:34:03;;;;;;;2.03;0.90;;;19.90;99.90;;;;;;5070879;28;20197;-66
2023/08/26 08:36:29;;;;;;;1.17;0.80;;;19.90;99.90;;;;;;5058557;28;20187;-67
2023/08/26 08:38:58;;;;;;;1.08;0.88;;;20.00;99.90;;;;;;5049443;28;20207;-69
2023/08/26 08:41:24;;;;;;;1.88;0.88;;;20.00;99.90;;;;;;5065502;28;20252;-68
2023/08/26 08:43:57;;;;;;;2.53;0.88;;;20.10;99.90;;;;;;5054867;28;20252;-70
2023/08/26 08:46:26;;;;;;;1.67;1.02;;;20.20;99.90;;;;;;5038416;28;20184;-69
2023/08/26 08:48:52;;;;;;;1.42;0.77;;;20.20;99.90;;;;;;5055143;28;20196;-67
2023/08/26 08:51:19;;;;;;;0.95;0.70;;;20.20;99.90;;;;;;5058335;28;20168;-66
2023/08/26 08:53:46;;;;;;;1.25;0.77;;;20.30;99.90;;;;;;5058485;28;20242;-66
2023/08/26 08:56:18;;;;;;;1.20;0.80;;;20.40;99.90;;;;;;5058253;28;20192;-67
2023/08/26 08:58:48;;;;;;;1.15;0.80;;;20.40;99.90;;;;;;5058150;28;20176;-67
2023/08/26 09:01:18;;;;;;;2.13;0.90;;;20.50;99.90;;;;;;5061231;28;20174;-67
2023/08/26 09:03:45;;;;;;;1.90;0.80;;;20.50;99.90;;;;;;5037283;28;20173;-67
2023/08/26 09:06:10;;;;;;;1.15;0.80;;;20.60;99.90;;;;;;5068565;28;20187;-67
2023/08/26 09:08:37;;;;;;;1.38;0.85;;;20.60;99.90;;;;;;5058042;28;20177;-66
2023/08/26 09:11:03;;;;;;;1.23;0.77;;;20.60;99.90;;;;;;5058132;28;20176;-66
2023/08/26 09:13:33;;;;;;;2.47;0.90;;;20.70;99.90;;;;;;5057924;28;20201;-67
2023/08/26 09:16:00;;;;;;;1.25;0.70;;;20.80;99.90;;;;;;5057899;28;20262;-67
2023/08/26 09:18:30;;;;;;;1.35;0.80;;;20.80;99.90;;;;;;5057965;28;20176;-67
2023/08/26 09:20:56;;;;;;;1.08;0.80;;;20.90;99.90;;;;;;5057752;28;20223;-66
2023/08/26 09:23:21;;;;;;;1.85;0.73;;;21.00;99.90;;;;;;5057944;28;20204;-69
2023/08/26 09:25:54;;;;;;;1.98;0.85;;;21.00;99.90;;;;;;5057835;28;20196;-67
2023/08/26 09:28:23;;;;;;;1.75;0.80;;;21.00;99.90;;;;;;5058026;28;20177;-66
2023/08/26 09:31:02;;;;;;;1.63;0.82;;;21.00;99.90;;;;;;5058806;28;20196;-68
2023/08/26 09:33:28;;;;;;;1.35;0.70;;;21.10;99.90;;;;;;5057965;28;20547;-67
2023/08/26 09:35:54;;;;;;;1.42;0.80;;;21.10;99.90;;;;;;5057704;28;20440;-65
2023/08/26 09:38:19;;;;;;;1.02;0.70;;;21.20;99.90;;;;;;5057921;28;20165;-66
2023/08/26 09:40:49;;;;;;;1.45;0.90;;;21.20;99.90;;;;;;5057398;28;20202;-66
2023/08/26 09:43:17;;;;;;;2.65;0.80;;;21.30;99.90;;;;;;5057647;28;20196;-67
2023/08/26 09:45:45;;;;;;;1.25;0.70;;;21.30;99.90;;;;;;5057489;28;20234;-67
2023/08/26 09:48:20;;;;;;;1.08;0.80;;;21.40;99.90;;;;;;5057579;28;20185;-67
2023/08/26 09:50:46;;;;;;;1.20;0.65;;;21.50;99.90;;;;;;5057505;28;20387;-67
2023/08/26 09:53:27;;;;;;;0.93;0.70;;;21.60;99.90;;;;;;5057113;28;20204;-67
2023/08/26 09:55:57;;;;;;;1.48;0.80;;;21.70;99.90;;;;;;5057529;28;20177;-66
2023/08/26 09:58:26;;;;;;;1.58;0.80;;;21.80;99.90;;;;;;5057517;28;20255;-68
2023/08/26 10:00:55;;;;;;;2.38;0.70;;;21.90;99.90;;;;;;5057739;28;20176;-67
2023/08/26 10:03:24;;;;;;;0.85;0.70;;;22.00;99.90;;;;;;5057496;28;20212;-66
2023/08/26 10:05:56;;;;;;;1.52;0.88;;;22.00;99.90;;;;;;5057727;28;20173;-67
2023/08/26 10:08:31;;;;;;;0.95;0.60;;;22.20;99.90;;;;;;5057580;28;20223;-67
2023/08/26 10:10:58;;;;;;;1.20;0.70;;;22.60;99.90;;;;;;5057327;28;20223;-66
2023/08/26 10:13:27;;;;;;;1.08;0.50;;;23.00;99.90;;;;;;5057217;28;20200;-67
2023/08/26 10:15:56;;;;;;;1.00;0.60;;;23.40;99.90;;;;;;5059651;28;20172;-67
2023/08/26 10:18:41;;;;;;;1.00;0.70;;;23.90;99.90;;;;;;5061111;28;20314;-67
2023/08/26 10:21:08;;;;;;;3.80;1.63;;;24.50;99.90;;;;;;5061248;28;20173;-67
2023/08/26 10:23:34;;;;;;;0.90;0.75;;;24.90;99.90;;;;;;5060735;28;20245;-67
2023/08/26 10:26:00;;;;;;;1.27;0.80;;;25.00;99.90;;;;;;5061180;28;20176;-68
2023/08/26 10:28:32;;;;;;;2.80;0.80;;;25.00;99.90;;;;;;5061045;28;20390;-68
2023/08/26 10:30:58;;;;;;;0.75;0.70;;;24.90;99.90;;;;;;5060860;28;20205;-67
2023/08/26 10:33:23;;;;;;;1.77;0.80;;;24.70;99.90;;;;;;5060872;28;20208;-67
2023/08/26 10:36:16;;;;;;;0.80;0.60;;;24.40;99.90;;;;;;5060819;28;20321;-66
2023/08/26 10:38:59;;;;;;;1.10;0.60;;;24.30;99.90;;;;;;5060778;28;20204;-67
2023/08/26 10:41:28;;;;;;;0.80;0.60;;;24.50;99.90;;;;;;5060775;28;20180;-67
2023/08/26 10:44:03;;;;;;;1.42;0.73;;;24.80;99.90;;;;;;5060812;28;20173;-66
2023/08/26 10:46:34;;;;;;;1.00;0.70;;;24.90;99.90;;;;;;5060756;28;20266;-67
2023/08/26 10:49:03;;;;;;;0.95;0.68;;;24.90;99.90;;;;;;5060397;28;20203;-66
2023/08/26 10:51:35;;;;;;;0.85;0.77;;;24.80;99.90;;;;;;5060406;28;20200;-67
2023/08/26 10:54:06;;;;;;;1.10;0.60;;;24.60;99.90;;;;;;5060478;28;20246;-67
2023/08/26 10:56:34;;;;;;;0.93;0.60;;;24.40;99.90;;;;;;5060521;28;20161;-66
2023/08/26 10:59:03;;;;;;;1.17;0.70;;;24.20;99.90;;;;;;5077353;28;20231;-67
2023/08/26 11:01:39;;;;;;;0.93;0.60;;;24.00;99.90;;;;;;5060001;28;20165;-66
2023/08/26 11:04:07;;;;;;;1.02;0.73;;;23.90;99.90;;;;;;5060365;28;20179;-66
2023/08/26 11:06:38;;;;;;;1.27;0.65;;;23.80;99.90;;;;;;5060484;28;20246;-68
2023/08/26 11:09:07;;;;;;;0.63;0.50;;;23.70;99.90;;;;;;5060548;28;20174;-68
2023/08/26 11:11:37;;;;;;;1.02;0.77;;;23.70;99.90;;;;;;5060485;28;20266;-68
2023/08/26 11:14:06;;;;;;;0.75;0.63;;;23.70;99.90;;;;;;5065716;28;20203;-67
2023/08/26 11:16:33;;;;;;;1.40;0.80;;;23.70;99.90;;;;;;5060182;28;20173;-69
2023/08/26 11:18:59;;;;;;;0.93;0.73;;;23.60;99.90;;;;;;5059680;28;20197;-66
2023/08/26 11:21:28;;;;;;;0.75;0.57;;;23.60;99.90;;;;;;5060149;28;20171;-67
2023/08/26 11:23:58;;;;;;;1.10;0.60;;;23.50;99.90;;;;;;5059817;28;20173;-66
2023/08/26 11:26:24;;;;;;;0.93;0.73;;;23.50;99.90;;;;;;5058916;28;20300;-67
2023/08/26 11:28:52;;;;;;;1.75;0.80;;;23.40;99.90;;;;;;5059801;28;20177;-67
2023/08/26 11:31:18;;;;;;;1.13;0.75;;;23.30;99.90;;;;;;5064411;28;20302;-66
2023/08/26 11:33:48;;;;;;;1.52;1.20;;;23.30;99.90;;;;;;5079514;28;20255;-66
2023/08/26 11:36:14;;;;;;;1.98;0.85;;;23.30;99.90;;;;;;5079407;28;20168;-66
2023/08/26 11:38:40;;;;;;;1.08;0.77;;;23.30;99.90;;;;;;5079665;28;20192;-67
2023/08/26 11:41:06;;;;;;;1.95;0.90;;;23.30;99.90;;;;;;5079526;28;20172;-66
2023/08/26 11:43:34;;;;;;;1.30;1.00;;;23.30;99.90;;;;;;5079621;28;20449;-64
2023/08/26 11:46:04;;;;;;;1.92;1.25;;;23.30;99.90;;;;;;5079498;28;20196;-67
2023/08/26 11:48:33;;;;;;;2.63;0.90;;;23.40;99.90;;;;;;5065553;28;20189;-66
2023/08/26 11:51:03;;;;;;;0.90;0.80;;;23.50;99.90;;;;;;5059215;28;20311;-66
2023/08/26 11:53:31;;;;;;;0.80;0.77;;;23.60;99.90;;;;;;5059325;28;20193;-65
2023/08/26 11:55:57;;;;;;;1.35;0.80;;;23.70;99.90;;;;;;5076904;28;20169;-67
2023/08/26 11:58:26;;;;;;;2.28;0.73;;;23.90;99.90;;;;;;5059144;28;20215;-67
2023/08/26 12:00:51;;;;;;;2.55;1.00;;;24.00;99.90;;;;;;5059335;28;20264;-68
2023/08/26 12:03:17;;;;;;;2.33;0.90;;;24.20;99.90;;;;;;5059301;28;20259;-66
2023/08/26 12:05:52;;;;;;;1.55;0.80;;;24.30;99.90;;;;;;5059180;28;20283;-67
2023/08/26 12:08:22;;;;;;;2.15;0.93;;;24.40;99.90;;;;;;5059242;28;20202;-68
2023/08/26 12:10:49;;;;;;;1.17;0.77;;;24.50;99.90;;;;;;5058887;28;20242;-68
2023/08/26 12:13:15;;;;;;;1.55;0.80;;;24.50;99.90;;;;;;5058701;28;20279;-67
2023/08/26 12:15:42;;;;;;;1.88;0.80;;;24.50;99.90;;;;;;5039896;28;20260;-68
2023/08/26 12:18:10;;;;;;;1.15;0.70;;;24.50;99.90;;;;;;5058822;28;20212;-67
2023/08/26 12:20:42;;;;;;;1.23;0.77;;;24.50;99.90;;;;;;5039064;28;20173;-68
2023/08/26 12:23:08;;;;;;;2.20;0.80;;;24.40;99.90;;;;;;5052758;28;20181;-67
2023/08/26 12:25:39;;;;;;;2.22;0.70;;;24.30;99.90;;;;;;5058556;28;20204;-67
2023/08/26 12:28:09;;;;;;;1.60;0.90;;;24.30;99.90;;;;;;5058709;28;20173;-68
2023/08/26 12:30:37;;;;;;;1.40;0.90;;;24.30;99.90;;;;;;5058774;28;20272;-67
2023/08/26 12:33:07;;;;;;;3.20;0.77;;;24.30;99.90;;;;;;5061694;28;20208;-68
2023/08/26 12:35:34;;;;;;;1.13;0.80;;;24.20;99.90;;;;;;5075419;28;20263;-68
2023/08/26 12:38:02;;;;;;;3.58;0.90;;;24.20;99.90;;;;;;5075114;28;20211;-68
2023/08/26 12:40:31;;;;;;;0.70;0.68;;;24.20;99.90;;;;;;5074947;28;20172;-67
2023/08/26 12:42:58;;;;;;;1.35;0.80;;;24.30;99.90;;;;;;5075289;28;20181;-67
2023/08/26 12:45:26;;;;;;;2.00;0.90;;;24.50;99.90;;;;;;5075527;28;20255;-68
2023/08/26 12:47:55;;;;;;;1.52;0.73;;;24.70;99.90;;;;;;5056340;28;20204;-66
2023/08/26 12:50:20;;;;;;;1.00;0.90;;;24.90;99.90;;;;;;5058223;28;20284;-65